createdAt,value
2017-08-26T00:00:01.245Z,24.17
2017-08-26T00:02:34.599Z,23.40
2017-08-26T00:05:02.130Z,24.40
2017-08-26T00:07:29.638Z,23.90
2017-08-26T00:09:57.143Z,24.10
2017-08-26T00:12:24.677Z,24.53
2017-08-26T00:14:52.177Z,23.00
2017-08-26T00:17:19.706Z,23.03
2017-08-26T00:19:47.205Z,24.13
2017-08-26T00:22:14.705Z,23.90
2017-08-26T00:24:42.235Z,25.47
2017-08-26T00:27:09.758Z,24.70
2017-08-26T00:29:37.258Z,23.90
2017-08-26T00:32:04.790Z,26.10
2017-08-26T00:34:32.289Z,26.23
2017-08-26T00:36:59.798Z,25.43
2017-08-26T00:39:27.342Z,25.60
2017-08-26T00:41:54.846Z,25.70
2017-08-26T00:44:22.349Z,26.43
2017-08-26T00:46:49.879Z,23.77
2017-08-26T00:49:17.390Z,25.87
2017-08-26T00:51:45.775Z,33.30
2017-08-26T00:54:13.302Z,31.40
2017-08-26T00:56:40.805Z,33.43
2017-08-26T00:59:08.318Z,32.87
2017-08-26T01:01:35.849Z,33.90
2017-08-26T01:04:03.358Z,33.57
2017-08-26T01:06:30.869Z,31.77
2017-08-26T01:08:58.411Z,28.97
2017-08-26T01:11:25.910Z,31.83
2017-08-26T01:13:57.834Z,33.87
2017-08-26T01:16:25.944Z,33.83
2017-08-26T01:18:53.454Z,33.47
2017-08-26T01:21:20.998Z,32.43
2017-08-26T01:23:48.506Z,29.77
2017-08-26T01:26:16.065Z,31.83
2017-08-26T01:28:43.586Z,32.40
2017-08-26T01:31:11.094Z,33.70
2017-08-26T01:33:38.622Z,35.57
2017-08-26T01:36:06.125Z,35.30
2017-08-26T01:38:33.626Z,32.20
2017-08-26T01:41:01.153Z,33.17
2017-08-26T01:43:28.704Z,33.47
2017-08-26T01:45:56.217Z,33.53
2017-08-26T01:48:23.757Z,33.37
2017-08-26T01:50:51.258Z,32.10
2017-08-26T01:53:18.847Z,33.20
2017-08-26T01:55:46.370Z,32.97
2017-08-26T01:58:13.878Z,32.40
2017-08-26T02:00:41.390Z,32.50
2017-08-26T02:03:08.931Z,32.03
2017-08-26T02:05:36.438Z,32.77
2017-08-26T02:08:04.216Z,31.60
2017-08-26T02:10:31.741Z,32.87
2017-08-26T02:12:59.246Z,31.97
2017-08-26T02:15:26.754Z,31.80
2017-08-26T02:17:54.289Z,33.37
2017-08-26T02:20:21.794Z,33.43
2017-08-26T02:22:49.302Z,30.10
2017-08-26T02:25:16.838Z,31.40
2017-08-26T02:27:44.401Z,32.33
2017-08-26T02:30:11.910Z,33.13
2017-08-26T02:32:39.410Z,32.80
2017-08-26T02:35:06.950Z,33.17
2017-08-26T02:37:34.458Z,32.30
2017-08-26T02:40:01.977Z,29.37
2017-08-26T02:42:29.514Z,31.43
2017-08-26T02:44:57.025Z,29.53
2017-08-26T02:47:24.530Z,31.03
2017-08-26T02:49:52.070Z,31.17
2017-08-26T02:52:19.610Z,29.20
2017-08-26T02:54:47.114Z,29.63
2017-08-26T02:57:14.622Z,29.50
2017-08-26T02:59:42.150Z,29.97
2017-08-26T03:02:09.650Z,28.57
2017-08-26T03:04:37.162Z,29.73
2017-08-26T03:07:04.690Z,29.20
2017-08-26T03:09:32.200Z,28.20
2017-08-26T03:11:59.734Z,29.50
2017-08-26T03:14:27.601Z,29.67
2017-08-26T03:16:55.105Z,35.10
2017-08-26T03:19:22.610Z,34.00
2017-08-26T03:21:50.141Z,32.27
2017-08-26T03:24:17.650Z,32.20
2017-08-26T03:26:45.153Z,32.30
2017-08-26T03:29:12.678Z,30.00
2017-08-26T03:31:40.178Z,27.50
2017-08-26T03:34:07.679Z,27.60
2017-08-26T03:36:35.206Z,28.60
2017-08-26T03:39:02.706Z,27.37
2017-08-26T03:41:30.261Z,29.07
2017-08-26T03:43:57.835Z,28.00
2017-08-26T03:46:25.337Z,28.50
2017-08-26T03:48:52.842Z,26.90
2017-08-26T03:51:20.366Z,26.20
2017-08-26T03:53:47.869Z,27.43
2017-08-26T03:56:15.377Z,27.17
2017-08-26T03:58:42.905Z,27.37
2017-08-26T04:01:10.417Z,28.23
2017-08-26T04:03:37.918Z,27.43
2017-08-26T04:06:05.453Z,26.60
2017-08-26T04:08:32.963Z,27.40
2017-08-26T04:11:00.468Z,26.00
2017-08-26T04:13:27.999Z,27.07
2017-08-26T04:15:55.500Z,26.63
2017-08-26T04:18:23.006Z,25.70
2017-08-26T04:20:50.533Z,26.33
2017-08-26T04:23:18.033Z,26.80
2017-08-26T04:25:45.534Z,24.73
2017-08-26T04:28:13.058Z,24.77
2017-08-26T04:30:40.558Z,25.23
2017-08-26T04:33:08.065Z,26.50
2017-08-26T04:35:35.589Z,26.50
2017-08-26T04:38:03.094Z,25.43
2017-08-26T04:40:30.593Z,25.87
2017-08-26T04:42:58.130Z,26.73
2017-08-26T04:45:25.671Z,24.50
2017-08-26T04:47:53.174Z,25.60
2017-08-26T04:50:20.718Z,24.87
2017-08-26T04:52:48.209Z,26.27
2017-08-26T04:55:15.711Z,27.93
2017-08-26T04:57:43.250Z,24.90
2017-08-26T05:00:10.754Z,24.43
2017-08-26T05:02:38.257Z,25.97
2017-08-26T05:05:05.782Z,24.90
2017-08-26T05:07:33.286Z,25.70
2017-08-26T05:10:00.790Z,25.80
2017-08-26T05:12:28.325Z,24.37
2017-08-26T05:14:55.842Z,24.33
2017-08-26T05:17:23.350Z,22.27
2017-08-26T05:19:50.878Z,25.00
2017-08-26T05:22:18.378Z,24.03
2017-08-26T05:24:45.885Z,22.30
2017-08-26T05:27:13.414Z,23.67
2017-08-26T05:29:40.914Z,23.10
2017-08-26T05:32:08.414Z,22.67
2017-08-26T05:34:35.942Z,22.67
2017-08-26T05:37:03.441Z,20.27
2017-08-26T05:39:30.941Z,21.87
2017-08-26T05:41:59.025Z,23.60
2017-08-26T05:44:26.527Z,23.87
2017-08-26T05:46:54.030Z,21.67
2017-08-26T05:49:21.554Z,21.70
2017-08-26T05:51:49.058Z,23.97
2017-08-26T05:54:16.566Z,24.73
2017-08-26T05:56:44.098Z,23.57
2017-08-26T05:59:11.602Z,23.67
2017-08-26T06:01:39.103Z,22.43
2017-08-26T06:04:06.633Z,24.53
2017-08-26T06:06:34.138Z,24.77
2017-08-26T06:09:01.642Z,22.23
2017-08-26T06:11:29.176Z,24.00
2017-08-26T06:13:56.678Z,22.37
2017-08-26T06:16:24.182Z,22.93
2017-08-26T06:18:51.708Z,20.93
2017-08-26T06:21:19.217Z,22.60
2017-08-26T06:23:46.721Z,23.60
2017-08-26T06:26:14.249Z,23.40
2017-08-26T06:28:41.755Z,23.40
2017-08-26T06:31:09.266Z,23.57
2017-08-26T06:33:36.789Z,23.43
2017-08-26T06:36:04.290Z,24.93
2017-08-26T06:38:31.793Z,23.80
2017-08-26T06:40:59.331Z,23.00
2017-08-26T06:43:26.834Z,22.07
2017-08-26T06:45:54.337Z,22.90
2017-08-26T06:48:21.862Z,22.77
2017-08-26T06:50:49.365Z,23.40
2017-08-26T06:53:16.862Z,25.03
2017-08-26T06:55:44.389Z,23.70
2017-08-26T06:58:11.890Z,25.40
2017-08-26T07:00:39.389Z,24.47
2017-08-26T07:03:06.914Z,23.17
2017-08-26T07:05:34.417Z,22.30
2017-08-26T07:08:01.918Z,21.50
2017-08-26T07:10:29.446Z,22.03
2017-08-26T07:12:56.947Z,20.83
2017-08-26T07:15:24.454Z,20.23
2017-08-26T07:17:51.997Z,20.50
2017-08-26T07:20:19.498Z,19.53
2017-08-26T07:22:46.998Z,20.03
2017-08-26T07:25:14.525Z,19.73
2017-08-26T07:27:42.028Z,19.43
2017-08-26T07:30:09.534Z,21.43
2017-08-26T07:32:37.074Z,20.10
2017-08-26T07:35:04.584Z,20.80
2017-08-26T07:37:32.095Z,20.23
2017-08-26T07:39:59.632Z,18.00
2017-08-26T07:42:27.134Z,20.40
2017-08-26T07:44:54.633Z,19.60
2017-08-26T07:47:22.157Z,19.03
2017-08-26T07:49:49.662Z,17.90
2017-08-26T07:52:17.174Z,18.63
2017-08-26T07:54:44.711Z,17.27
2017-08-26T07:57:12.218Z,17.00
2017-08-26T07:59:39.723Z,18.90
2017-08-26T08:02:07.249Z,17.67
2017-08-26T08:04:34.754Z,15.77
2017-08-26T08:07:02.257Z,15.20
2017-08-26T08:09:29.786Z,15.20
2017-08-26T08:11:57.298Z,15.63
2017-08-26T08:14:24.805Z,14.90
2017-08-26T08:16:52.337Z,13.63
2017-08-26T08:19:19.847Z,14.60
2017-08-26T08:21:47.356Z,13.87
2017-08-26T08:24:14.881Z,13.93
2017-08-26T08:26:42.398Z,14.57
2017-08-26T08:29:09.909Z,14.43
2017-08-26T08:31:37.434Z,14.07
2017-08-26T08:34:04.938Z,12.27
2017-08-26T08:36:32.446Z,12.63
2017-08-26T08:38:59.976Z,9.60
2017-08-26T08:41:27.474Z,8.90
2017-08-26T08:43:54.982Z,8.87
2017-08-26T08:46:22.815Z,9.13
2017-08-26T08:48:50.314Z,8.70
2017-08-26T08:51:17.814Z,8.43
2017-08-26T08:53:45.340Z,8.40
2017-08-26T08:56:12.841Z,8.60
2017-08-26T08:58:40.353Z,9.17
2017-08-26T09:01:07.877Z,8.30
2017-08-26T09:03:35.379Z,8.60
2017-08-26T09:06:02.882Z,8.30
2017-08-26T09:08:30.410Z,8.40
2017-08-26T09:10:57.910Z,9.27
2017-08-26T09:13:25.426Z,8.30
2017-08-26T09:15:52.975Z,8.77
2017-08-26T09:18:20.540Z,9.90
2017-08-26T09:20:48.050Z,8.80
2017-08-26T09:23:15.579Z,9.20
2017-08-26T09:25:43.078Z,9.73
2017-08-26T09:28:10.577Z,8.90
2017-08-26T09:30:38.109Z,8.40
2017-08-26T09:33:05.605Z,8.30
2017-08-26T09:35:33.106Z,9.03
2017-08-26T09:38:00.630Z,8.40
2017-08-26T09:40:28.135Z,8.80
2017-08-26T09:42:55.666Z,9.27
2017-08-26T09:45:23.193Z,8.70
2017-08-26T09:47:50.715Z,8.90
2017-08-26T09:50:18.209Z,8.27
2017-08-26T09:52:45.734Z,9.20
2017-08-26T09:55:13.249Z,9.47
2017-08-26T09:57:40.781Z,10.10
2017-08-26T10:00:08.289Z,9.07
2017-08-26T10:02:35.798Z,8.97
2017-08-26T10:05:03.723Z,10.57
2017-08-26T10:07:31.230Z,9.97
2017-08-26T10:09:58.726Z,8.63
2017-08-26T10:12:26.254Z,10.17
2017-08-26T10:14:53.750Z,9.73
2017-08-26T10:17:21.278Z,8.83
2017-08-26T10:19:48.791Z,8.07
2017-08-26T10:22:16.298Z,9.17
2017-08-26T10:24:44.105Z,9.50
2017-08-26T10:27:11.605Z,8.47
2017-08-26T10:29:39.099Z,9.40
2017-08-26T10:32:06.794Z,9.63
2017-08-26T10:34:34.368Z,9.57
2017-08-26T10:37:01.895Z,10.10
2017-08-26T10:39:29.421Z,9.73
2017-08-26T10:41:56.926Z,10.57
2017-08-26T10:44:24.429Z,9.30
2017-08-26T10:46:51.962Z,11.77
2017-08-26T10:49:19.475Z,11.40
2017-08-26T10:51:46.977Z,11.43
2017-08-26T10:54:14.582Z,9.90
2017-08-26T10:56:42.121Z,9.97
2017-08-26T10:59:09.635Z,10.17
2017-08-26T11:01:37.214Z,10.70
2017-08-26T11:04:04.768Z,10.83
2017-08-26T11:06:32.286Z,10.70
2017-08-26T11:08:59.826Z,11.30
2017-08-26T11:11:27.331Z,11.17
2017-08-26T11:13:54.833Z,10.87
2017-08-26T11:16:22.361Z,13.73
2017-08-26T11:18:49.871Z,11.33
2017-08-26T11:21:17.370Z,9.67
2017-08-26T11:23:44.894Z,10.70
2017-08-26T11:26:12.399Z,11.17
2017-08-26T11:28:39.911Z,11.57
2017-08-26T11:31:07.446Z,11.50
2017-08-26T11:33:34.948Z,10.67
2017-08-26T11:36:02.450Z,10.33
2017-08-26T11:38:30.582Z,11.40
2017-08-26T11:40:58.086Z,10.57
2017-08-26T11:43:25.581Z,10.97
2017-08-26T11:45:53.113Z,11.53
2017-08-26T11:48:20.646Z,9.90
2017-08-26T11:50:48.149Z,11.13
2017-08-26T11:53:15.678Z,11.53
2017-08-26T11:55:43.189Z,10.93
2017-08-26T11:58:10.750Z,11.63
2017-08-26T12:00:38.302Z,11.10
2017-08-26T12:03:05.818Z,10.90
2017-08-26T12:05:33.330Z,11.63
2017-08-26T12:08:00.874Z,10.80
2017-08-26T12:10:28.379Z,11.00
2017-08-26T12:12:55.923Z,10.23
2017-08-26T12:15:23.454Z,10.87
2017-08-26T12:17:51.148Z,11.80
2017-08-26T12:20:18.802Z,10.87
2017-08-26T12:22:47.331Z,10.47
2017-08-26T12:25:15.233Z,11.03
2017-08-26T12:27:42.734Z,11.07
2017-08-26T12:30:10.273Z,11.83
2017-08-26T12:32:37.787Z,10.83
2017-08-26T12:35:05.302Z,11.53
2017-08-26T12:37:32.837Z,11.13
2017-08-26T12:40:00.347Z,11.50
2017-08-26T12:42:27.853Z,11.10
2017-08-26T12:44:55.377Z,11.63
2017-08-26T12:47:22.874Z,10.87
2017-08-26T12:49:50.381Z,12.37
2017-08-26T12:52:17.928Z,13.10
2017-08-26T12:54:45.450Z,12.90
2017-08-26T12:57:12.953Z,12.20
2017-08-26T12:59:40.478Z,13.33
2017-08-26T13:02:08.012Z,11.30
2017-08-26T13:04:35.513Z,11.37
2017-08-26T13:07:03.014Z,12.80
2017-08-26T13:09:30.963Z,11.70
2017-08-26T13:11:58.474Z,11.70
2017-08-26T13:14:25.978Z,12.30
2017-08-26T13:16:53.502Z,11.53
2017-08-26T13:19:21.006Z,13.07
2017-08-26T13:21:48.513Z,12.10
2017-08-26T13:24:16.042Z,12.33
2017-08-26T13:26:43.546Z,11.27
2017-08-26T13:29:11.057Z,12.80
2017-08-26T13:31:38.592Z,12.40
2017-08-26T13:34:06.094Z,12.80
2017-08-26T13:36:33.594Z,12.10
2017-08-26T13:39:01.143Z,12.80
2017-08-26T13:41:28.650Z,12.70
2017-08-26T13:43:56.158Z,11.90
2017-08-26T13:46:23.690Z,11.90
2017-08-26T13:48:51.194Z,13.37
2017-08-26T13:51:18.707Z,12.80
2017-08-26T13:53:46.259Z,11.93
2017-08-26T13:56:13.770Z,11.53
2017-08-26T13:58:41.309Z,12.03
2017-08-26T14:01:08.851Z,13.30
2017-08-26T14:03:36.377Z,12.70
2017-08-26T14:06:03.925Z,11.87
2017-08-26T14:08:31.434Z,12.10
2017-08-26T14:10:58.946Z,11.80
2017-08-26T14:13:26.474Z,12.60
2017-08-26T14:15:53.984Z,12.33
2017-08-26T14:18:21.490Z,11.73
2017-08-26T14:20:49.026Z,12.10
2017-08-26T14:23:16.543Z,12.27
2017-08-26T14:25:44.049Z,12.47
2017-08-26T14:28:11.577Z,12.43
2017-08-26T14:30:39.090Z,13.53
2017-08-26T14:33:06.600Z,12.27
2017-08-26T14:35:34.124Z,12.73
2017-08-26T14:38:01.626Z,12.40
2017-08-26T14:40:29.125Z,12.30
2017-08-26T14:42:56.654Z,12.33
2017-08-26T14:45:24.166Z,13.00
2017-08-26T14:47:51.669Z,12.90
2017-08-26T14:50:19.194Z,13.20
2017-08-26T14:52:46.725Z,11.93
2017-08-26T14:55:14.233Z,12.90
2017-08-26T14:57:41.766Z,13.57
2017-08-26T15:00:09.270Z,11.63
2017-08-26T15:02:36.778Z,11.80
2017-08-26T15:05:04.377Z,12.27
2017-08-26T15:07:32.247Z,12.63
2017-08-26T15:10:00.199Z,12.50
2017-08-26T15:12:27.706Z,13.43
2017-08-26T15:14:55.283Z,12.40
2017-08-26T15:17:22.819Z,13.13
2017-08-26T15:19:50.326Z,12.30
2017-08-26T15:22:17.834Z,12.57
2017-08-26T15:24:45.366Z,13.10
2017-08-26T15:27:12.890Z,12.63
2017-08-26T15:29:40.397Z,13.00
2017-08-26T15:32:07.930Z,13.43
2017-08-26T15:34:35.445Z,11.70
2017-08-26T15:37:02.950Z,12.87
2017-08-26T15:39:30.510Z,12.33
2017-08-26T15:41:58.040Z,12.53
2017-08-26T15:44:25.549Z,12.90
2017-08-26T15:46:53.081Z,12.60
2017-08-26T15:49:20.585Z,13.10
2017-08-26T15:51:48.090Z,12.73
2017-08-26T15:54:15.622Z,13.10
2017-08-26T15:56:43.130Z,13.80
2017-08-26T15:59:10.642Z,13.50
2017-08-26T16:01:38.166Z,13.13
2017-08-26T16:04:05.679Z,13.47
2017-08-26T16:06:33.186Z,12.33
2017-08-26T16:09:00.730Z,12.03
2017-08-26T16:11:28.294Z,12.37
2017-08-26T16:13:55.806Z,12.43
2017-08-26T16:16:23.337Z,12.80
2017-08-26T16:18:50.834Z,12.50
2017-08-26T16:21:18.337Z,12.40
2017-08-26T16:23:45.866Z,12.93
2017-08-26T16:26:13.365Z,12.70
2017-08-26T16:28:40.874Z,13.60
2017-08-26T16:31:08.401Z,12.90
2017-08-26T16:33:35.935Z,12.37
2017-08-26T16:36:03.447Z,12.70
2017-08-26T16:38:30.978Z,13.30
2017-08-26T16:40:58.496Z,13.33
2017-08-26T16:43:26.033Z,13.20
2017-08-26T16:45:53.558Z,13.43
2017-08-26T16:48:21.459Z,12.70
2017-08-26T16:50:48.990Z,13.30
2017-08-26T16:53:16.498Z,13.13
2017-08-26T16:55:44.008Z,14.00
2017-08-26T16:58:11.539Z,13.13
2017-08-26T17:00:39.046Z,11.73
2017-08-26T17:03:06.550Z,12.90
2017-08-26T17:05:34.080Z,12.77
2017-08-26T17:08:01.588Z,13.07
2017-08-26T17:10:29.100Z,13.73
2017-08-26T17:12:56.641Z,13.40
2017-08-26T17:15:24.150Z,12.50
2017-08-26T17:17:51.666Z,13.27
2017-08-26T17:20:19.206Z,12.70
2017-08-26T17:22:46.710Z,12.33
2017-08-26T17:25:14.210Z,13.90
2017-08-26T17:27:41.705Z,11.90
2017-08-26T17:30:09.245Z,13.83
2017-08-26T17:32:37.586Z,13.70
2017-08-26T17:35:05.115Z,13.23
2017-08-26T17:37:32.618Z,13.33
2017-08-26T17:40:00.121Z,13.40
2017-08-26T17:42:27.663Z,13.40
2017-08-26T17:44:55.166Z,13.33
2017-08-26T17:47:22.710Z,12.83
2017-08-26T17:49:50.245Z,14.03
2017-08-26T17:52:17.773Z,14.50
2017-08-26T17:54:45.277Z,13.30
2017-08-26T17:57:12.806Z,13.37
2017-08-26T17:59:40.308Z,13.67
2017-08-26T18:02:07.823Z,13.90
2017-08-26T18:04:35.357Z,13.40
2017-08-26T18:07:02.889Z,14.20
2017-08-26T18:09:30.401Z,14.00
2017-08-26T18:11:57.922Z,14.27
2017-08-26T18:14:25.454Z,14.20
2017-08-26T18:16:52.980Z,15.50
2017-08-26T18:19:20.484Z,14.90
2017-08-26T18:21:48.009Z,18.20
2017-08-26T18:24:15.517Z,15.77
2017-08-26T18:26:43.024Z,17.80
2017-08-26T18:29:10.566Z,15.57
2017-08-26T18:31:38.071Z,16.70
2017-08-26T18:34:05.587Z,16.00
2017-08-26T18:36:33.103Z,16.47
2017-08-26T18:39:00.605Z,15.80
2017-08-26T18:41:28.108Z,15.10
2017-08-26T18:43:55.662Z,15.97
2017-08-26T18:46:23.164Z,14.93
2017-08-26T18:48:50.665Z,16.20
2017-08-26T18:51:18.287Z,15.17
2017-08-26T18:53:45.793Z,16.90
2017-08-26T18:56:13.300Z,16.30
2017-08-26T18:58:40.835Z,17.47
2017-08-26T19:01:08.342Z,15.50
2017-08-26T19:03:35.874Z,16.13
2017-08-26T19:06:03.411Z,15.30
2017-08-26T19:08:30.918Z,15.20
2017-08-26T19:10:58.434Z,15.87
2017-08-26T19:13:28.959Z,16.00
2017-08-26T19:15:56.511Z,16.03
2017-08-26T19:18:24.025Z,17.03
2017-08-26T19:20:51.561Z,17.23
2017-08-26T19:23:19.075Z,15.83
2017-08-26T19:25:46.582Z,15.97
2017-08-26T19:28:14.119Z,16.10
2017-08-26T19:30:41.638Z,15.70
2017-08-26T19:33:09.146Z,16.10
2017-08-26T19:35:36.709Z,17.20
2017-08-26T19:38:04.226Z,17.33
2017-08-26T19:40:31.730Z,17.60
2017-08-26T19:42:59.270Z,16.63
2017-08-26T19:45:26.790Z,16.83
2017-08-26T19:47:54.294Z,19.33
2017-08-26T19:50:21.845Z,17.40
2017-08-26T19:52:49.465Z,18.00
2017-08-26T19:55:16.974Z,17.57
2017-08-26T19:57:44.518Z,21.40
2017-08-26T20:00:12.040Z,18.93
2017-08-26T20:02:39.547Z,18.13
2017-08-26T20:05:07.118Z,19.60
2017-08-26T20:07:34.664Z,20.00
2017-08-26T20:10:02.174Z,21.03
2017-08-26T20:12:29.706Z,22.43
2017-08-26T20:14:57.218Z,21.63
2017-08-26T20:17:24.726Z,20.50
2017-08-26T20:19:52.265Z,22.90
2017-08-26T20:22:19.774Z,21.90
2017-08-26T20:24:47.292Z,21.10
2017-08-26T20:27:14.822Z,21.33
2017-08-26T20:29:42.333Z,21.17
2017-08-26T20:32:09.846Z,19.60
2017-08-26T20:34:37.390Z,19.80
2017-08-26T20:37:04.895Z,20.50
2017-08-26T20:39:32.397Z,20.10
2017-08-26T20:42:00.288Z,19.90
2017-08-26T20:44:28.046Z,19.17
2017-08-26T20:46:55.868Z,19.33
2017-08-26T20:49:23.407Z,21.27
2017-08-26T20:51:50.910Z,20.33
2017-08-26T20:54:18.414Z,20.37
2017-08-26T20:56:45.943Z,21.40
2017-08-26T20:59:13.446Z,21.70
2017-08-26T21:01:40.973Z,20.03
2017-08-26T21:04:08.518Z,21.33
2017-08-26T21:06:36.043Z,22.37
2017-08-26T21:09:03.655Z,19.53
2017-08-26T21:11:31.201Z,21.03
2017-08-26T21:13:58.710Z,22.50
2017-08-26T21:16:26.212Z,23.67
2017-08-26T21:18:53.761Z,23.33
2017-08-26T21:21:21.266Z,21.93
2017-08-26T21:23:48.771Z,20.60
2017-08-26T21:26:16.297Z,21.10
2017-08-26T21:28:43.797Z,22.17
2017-08-26T21:31:11.303Z,21.60
2017-08-26T21:33:38.830Z,22.40
2017-08-26T21:36:06.336Z,26.03
2017-08-26T21:38:33.838Z,23.63
2017-08-26T21:41:01.366Z,23.30
2017-08-26T21:43:28.874Z,23.37
2017-08-26T21:45:56.382Z,21.20
2017-08-26T21:48:23.911Z,21.83
2017-08-26T21:50:51.415Z,21.90
2017-08-26T21:53:18.918Z,22.53
2017-08-26T21:55:46.446Z,24.30
2017-08-26T21:58:13.958Z,22.80
2017-08-26T22:00:41.478Z,22.00
2017-08-26T22:03:09.015Z,22.83
2017-08-26T22:05:36.522Z,23.73
2017-08-26T22:08:04.038Z,22.03
2017-08-26T22:10:31.567Z,22.30
2017-08-26T22:12:59.070Z,22.33
2017-08-26T22:15:26.576Z,28.40
2017-08-26T22:17:54.102Z,41.20
2017-08-26T22:20:21.601Z,22.23
2017-08-26T22:22:49.106Z,26.37
2017-08-26T22:25:16.633Z,24.80
2017-08-26T22:27:44.134Z,24.83
2017-08-26T22:30:11.639Z,24.03
2017-08-26T22:32:39.165Z,24.03
2017-08-26T22:35:06.674Z,24.67
2017-08-26T22:37:34.176Z,25.07
2017-08-26T22:40:02.138Z,25.10
2017-08-26T22:42:29.639Z,23.50
2017-08-26T22:44:57.142Z,24.13
2017-08-26T22:47:24.678Z,24.03
2017-08-26T22:49:52.195Z,24.53
2017-08-26T22:52:19.762Z,23.33
2017-08-26T22:54:47.348Z,23.93
2017-08-26T22:57:14.855Z,23.40
2017-08-26T22:59:42.388Z,23.30
2017-08-26T23:02:10.034Z,24.00
2017-08-26T23:04:37.534Z,23.47
2017-08-26T23:07:05.034Z,23.13
2017-08-26T23:09:32.573Z,23.73
2017-08-26T23:12:00.077Z,23.93
2017-08-26T23:14:27.581Z,22.73
2017-08-26T23:16:55.122Z,23.40
2017-08-26T23:19:22.626Z,23.27
2017-08-26T23:21:50.149Z,23.90
2017-08-26T23:24:17.679Z,23.13
2017-08-26T23:26:45.202Z,26.20
2017-08-26T23:29:12.706Z,25.23
2017-08-26T23:31:40.233Z,25.23
2017-08-26T23:34:07.742Z,24.80
2017-08-26T23:36:35.540Z,25.03
2017-08-26T23:39:03.820Z,24.70
2017-08-26T23:41:31.341Z,23.37
2017-08-26T23:43:58.849Z,25.03
2017-08-26T23:46:26.414Z,25.63
2017-08-26T23:48:53.914Z,23.83
2017-08-26T23:51:21.443Z,23.80
2017-08-26T23:53:48.965Z,24.80
2017-08-26T23:56:16.479Z,24.37
2017-08-26T23:58:44.006Z,25.10
